sensor_id;sensor_type;location;lat;lon;timestamp;P1;durP1;ratioP1;P2;durP2;ratioP2
47784;SDS011;35233;55.686;37.848;2023-03-18T00:00:41;3.30;;;2.17;;
47784;SDS011;35233;55.686;37.848;2023-03-18T00:03:07;2.85;;;2.00;;
47784;SDS011;35233;55.686;37.848;2023-03-18T00:05:33;5.07;;;2.70;;
47784;SDS011;35233;55.686;37.848;2023-03-18T00:08:00;3.08;;;2.15;;
47784;SDS011;35233;55.686;37.848;2023-03-18T00:10:26;4.38;;;2.10;;
47784;SDS011;35233;55.686;37.848;2023-03-18T00:12:53;3.10;;;2.20;;
47784;SDS011;35233;55.686;37.848;2023-03-18T00:15:19;3.30;;;2.00;;
47784;SDS011;35233;55.686;37.848;2023-03-18T00:17:45;2.65;;;1.75;;
47784;SDS011;35233;55.686;37.848;2023-03-18T00:20:12;4.43;;;2.13;;
47784;SDS011;35233;55.686;37.848;2023-03-18T00:22:41;2.80;;;2.00;;
47784;SDS011;35233;55.686;37.848;2023-03-18T00:25:08;2.75;;;1.85;;
47784;SDS011;35233;55.686;37.848;2023-03-18T00:27:35;2.80;;;1.85;;
47784;SDS011;35233;55.686;37.848;2023-03-18T00:30:02;2.83;;;2.05;;
47784;SDS011;35233;55.686;37.848;2023-03-18T00:32:29;2.10;;;1.73;;
47784;SDS011;35233;55.686;37.848;2023-03-18T00:34:54;3.00;;;1.92;;
47784;SDS011;35233;55.686;37.848;2023-03-18T00:37:21;2.83;;;1.92;;
47784;SDS011;35233;55.686;37.848;2023-03-18T00:40:05;2.17;;;1.90;;
47784;SDS011;35233;55.686;37.848;2023-03-18T00:42:36;3.92;;;2.40;;
47784;SDS011;35233;55.686;37.848;2023-03-18T00:45:11;3.05;;;1.85;;
47784;SDS011;35233;55.686;37.848;2023-03-18T00:47:38;2.58;;;1.85;;
47784;SDS011;35233;55.686;37.848;2023-03-18T00:50:05;2.85;;;2.08;;
47784;SDS011;35233;55.686;37.848;2023-03-18T00:52:32;2.95;;;1.90;;
47784;SDS011;35233;55.686;37.848;2023-03-18T00:54:58;2.50;;;1.90;;
47784;SDS011;35233;55.686;37.848;2023-03-18T00:57:24;3.47;;;1.90;;
47784;SDS011;35233;55.686;37.848;2023-03-18T00:59:50;2.88;;;1.73;;
47784;SDS011;35233;55.686;37.848;2023-03-18T01:02:16;3.17;;;2.20;;
47784;SDS011;35233;55.686;37.848;2023-03-18T01:04:42;3.10;;;2.00;;
47784;SDS011;35233;55.686;37.848;2023-03-18T01:07:08;2.72;;;1.77;;
47784;SDS011;35233;55.686;37.848;2023-03-18T01:09:35;4.22;;;1.98;;
47784;SDS011;35233;55.686;37.848;2023-03-18T01:12:05;2.20;;;1.90;;
47784;SDS011;35233;55.686;37.848;2023-03-18T01:14:35;2.10;;;1.55;;
47784;SDS011;35233;55.686;37.848;2023-03-18T01:17:02;3.05;;;1.95;;
47784;SDS011;35233;55.686;37.848;2023-03-18T01:19:29;2.60;;;2.05;;
47784;SDS011;35233;55.686;37.848;2023-03-18T01:21:55;3.45;;;2.17;;
47784;SDS011;35233;55.686;37.848;2023-03-18T01:24:20;3.10;;;1.70;;
47784;SDS011;35233;55.686;37.848;2023-03-18T01:26:46;2.63;;;1.70;;
47784;SDS011;35233;55.686;37.848;2023-03-18T01:29:12;4.53;;;1.83;;
47784;SDS011;35233;55.686;37.848;2023-03-18T01:31:37;2.40;;;1.73;;
47784;SDS011;35233;55.686;37.848;2023-03-18T01:34:03;3.30;;;2.22;;
47784;SDS011;35233;55.686;37.848;2023-03-18T01:36:28;3.55;;;1.70;;
47784;SDS011;35233;55.686;37.848;2023-03-18T01:38:54;2.80;;;1.77;;
47784;SDS011;35233;55.686;37.848;2023-03-18T01:41:22;2.83;;;2.00;;
47784;SDS011;35233;55.686;37.848;2023-03-18T01:43:49;2.70;;;1.80;;
47784;SDS011;35233;55.686;37.848;2023-03-18T01:46:49;2.95;;;1.83;;
47784;SDS011;35233;55.686;37.848;2023-03-18T01:49:19;2.80;;;1.73;;
47784;SDS011;35233;55.686;37.848;2023-03-18T01:51:55;2.42;;;1.67;;
47784;SDS011;35233;55.686;37.848;2023-03-18T01:54:24;2.88;;;1.75;;
47784;SDS011;35233;55.686;37.848;2023-03-18T01:56:51;2.00;;;1.50;;
47784;SDS011;35233;55.686;37.848;2023-03-18T01:59:18;2.83;;;1.92;;
47784;SDS011;35233;55.686;37.848;2023-03-18T02:01:51;2.78;;;1.75;;
47784;SDS011;35233;55.686;37.848;2023-03-18T02:04:19;2.45;;;1.67;;
47784;SDS011;35233;55.686;37.848;2023-03-18T02:06:49;1.90;;;1.70;;
47784;SDS011;35233;55.686;37.848;2023-03-18T02:09:15;3.75;;;1.90;;
47784;SDS011;35233;55.686;37.848;2023-03-18T02:11:42;2.28;;;1.80;;
47784;SDS011;35233;55.686;37.848;2023-03-18T02:14:14;3.00;;;2.05;;
47784;SDS011;35233;55.686;37.848;2023-03-18T02:16:47;2.03;;;1.70;;
47784;SDS011;35233;55.686;37.848;2023-03-18T02:22:03;2.65;;;2.10;;
47784;SDS011;35233;55.686;37.848;2023-03-18T02:24:41;2.88;;;1.90;;
47784;SDS011;35233;55.686;37.848;2023-03-18T02:29:44;2.15;;;1.65;;
47784;SDS011;35233;55.686;37.848;2023-03-18T02:32:12;1.98;;;1.50;;
47784;SDS011;35233;55.686;37.848;2023-03-18T02:34:39;2.40;;;1.55;;
47784;SDS011;35233;55.686;37.848;2023-03-18T02:37:07;2.85;;;2.10;;
47784;SDS011;35233;55.686;37.848;2023-03-18T02:39:33;2.95;;;1.90;;
47784;SDS011;35233;55.686;37.848;2023-03-18T02:41:59;1.63;;;1.52;;
47784;SDS011;35233;55.686;37.848;2023-03-18T02:44:25;3.03;;;1.80;;
47784;SDS011;35233;55.686;37.848;2023-03-18T02:46:53;1.95;;;1.70;;
47784;SDS011;35233;55.686;37.848;2023-03-18T02:49:22;2.35;;;1.75;;
47784;SDS011;35233;55.686;37.848;2023-03-18T02:51:50;2.80;;;1.80;;
47784;SDS011;35233;55.686;37.848;2023-03-18T02:54:18;2.92;;;1.75;;
47784;SDS011;35233;55.686;37.848;2023-03-18T02:56:45;3.10;;;1.90;;
47784;SDS011;35233;55.686;37.848;2023-03-18T02:59:11;2.95;;;1.90;;
47784;SDS011;35233;55.686;37.848;2023-03-18T03:01:38;2.42;;;1.70;;
47784;SDS011;35233;55.686;37.848;2023-03-18T03:04:05;2.67;;;1.85;;
47784;SDS011;35233;55.686;37.848;2023-03-18T03:06:32;2.50;;;1.98;;
47784;SDS011;35233;55.686;37.848;2023-03-18T03:08:58;1.58;;;1.40;;
47784;SDS011;35233;55.686;37.848;2023-03-18T03:11:25;3.08;;;1.75;;
47784;SDS011;35233;55.686;37.848;2023-03-18T03:13:51;2.88;;;1.80;;
47784;SDS011;35233;55.686;37.848;2023-03-18T03:16:17;3.25;;;1.70;;
47784;SDS011;35233;55.686;37.848;2023-03-18T03:18:43;2.55;;;1.67;;
47784;SDS011;35233;55.686;37.848;2023-03-18T03:21:09;2.20;;;1.65;;
47784;SDS011;35233;55.686;37.848;2023-03-18T03:23:37;2.25;;;1.80;;
47784;SDS011;35233;55.686;37.848;2023-03-18T03:26:03;2.33;;;1.73;;
47784;SDS011;35233;55.686;37.848;2023-03-18T03:28:29;2.13;;;1.80;;
47784;SDS011;35233;55.686;37.848;2023-03-18T03:30:56;2.60;;;1.88;;
47784;SDS011;35233;55.686;37.848;2023-03-18T03:33:23;2.60;;;1.52;;
47784;SDS011;35233;55.686;37.848;2023-03-18T03:35:49;2.65;;;1.80;;
47784;SDS011;35233;55.686;37.848;2023-03-18T03:38:15;1.98;;;1.65;;
47784;SDS011;35233;55.686;37.848;2023-03-18T03:40:40;2.47;;;1.90;;
47784;SDS011;35233;55.686;37.848;2023-03-18T03:43:06;2.33;;;1.70;;
47784;SDS011;35233;55.686;37.848;2023-03-18T03:45:35;3.03;;;1.90;;
47784;SDS011;35233;55.686;37.848;2023-03-18T03:48:01;2.80;;;1.90;;
47784;SDS011;35233;55.686;37.848;2023-03-18T03:50:28;2.45;;;1.90;;
47784;SDS011;35233;55.686;37.848;2023-03-18T03:52:54;3.47;;;1.83;;
47784;SDS011;35233;55.686;37.848;2023-03-18T03:55:20;3.38;;;2.05;;
47784;SDS011;35233;55.686;37.848;2023-03-18T03:57:46;2.40;;;1.90;;
47784;SDS011;35233;55.686;37.848;2023-03-18T04:00:16;4.03;;;2.00;;
47784;SDS011;35233;55.686;37.848;2023-03-18T04:02:44;3.33;;;1.83;;
47784;SDS011;35233;55.686;37.848;2023-03-18T04:05:11;2.35;;;2.00;;
47784;SDS011;35233;55.686;37.848;2023-03-18T04:07:39;2.50;;;1.80;;
47784;SDS011;35233;55.686;37.848;2023-03-18T04:10:06;3.33;;;1.60;;
47784;SDS011;35233;55.686;37.848;2023-03-18T04:12:33;3.00;;;1.95;;
47784;SDS011;35233;55.686;37.848;2023-03-18T04:14:59;2.92;;;2.00;;
47784;SDS011;35233;55.686;37.848;2023-03-18T04:17:25;3.78;;;2.00;;
47784;SDS011;35233;55.686;37.848;2023-03-18T04:19:50;4.07;;;2.00;;
47784;SDS011;35233;55.686;37.848;2023-03-18T04:22:16;2.38;;;1.85;;
47784;SDS011;35233;55.686;37.848;2023-03-18T04:24:42;7.35;;;2.00;;
47784;SDS011;35233;55.686;37.848;2023-03-18T04:27:08;2.70;;;1.77;;
47784;SDS011;35233;55.686;37.848;2023-03-18T04:29:35;3.20;;;1.90;;
47784;SDS011;35233;55.686;37.848;2023-03-18T04:32:01;2.60;;;1.70;;
47784;SDS011;35233;55.686;37.848;2023-03-18T04:34:27;3.00;;;1.55;;
47784;SDS011;35233;55.686;37.848;2023-03-18T04:36:53;3.17;;;2.15;;
47784;SDS011;35233;55.686;37.848;2023-03-18T04:39:20;3.72;;;1.85;;
47784;SDS011;35233;55.686;37.848;2023-03-18T04:41:46;3.42;;;2.08;;
47784;SDS011;35233;55.686;37.848;2023-03-18T04:44:12;2.42;;;1.70;;
47784;SDS011;35233;55.686;37.848;2023-03-18T04:46:37;3.95;;;1.85;;
47784;SDS011;35233;55.686;37.848;2023-03-18T04:49:03;3.00;;;1.98;;
47784;SDS011;35233;55.686;37.848;2023-03-18T04:51:29;2.53;;;1.67;;
47784;SDS011;35233;55.686;37.848;2023-03-18T04:53:54;2.53;;;1.83;;
47784;SDS011;35233;55.686;37.848;2023-03-18T04:56:20;3.55;;;2.03;;
47784;SDS011;35233;55.686;37.848;2023-03-18T04:58:45;1.92;;;1.70;;
47784;SDS011;35233;55.686;37.848;2023-03-18T05:01:11;2.72;;;1.60;;
47784;SDS011;35233;55.686;37.848;2023-03-18T05:03:38;3.10;;;1.90;;
47784;SDS011;35233;55.686;37.848;2023-03-18T05:06:04;2.35;;;1.52;;
47784;SDS011;35233;55.686;37.848;2023-03-18T05:08:32;2.53;;;1.90;;
47784;SDS011;35233;55.686;37.848;2023-03-18T05:10:58;2.80;;;1.70;;
47784;SDS011;35233;55.686;37.848;2023-03-18T05:13:24;3.08;;;1.70;;
47784;SDS011;35233;55.686;37.848;2023-03-18T05:15:49;3.75;;;1.98;;
47784;SDS011;35233;55.686;37.848;2023-03-18T05:18:15;2.60;;;1.90;;
47784;SDS011;35233;55.686;37.848;2023-03-18T05:20:40;2.88;;;1.75;;
47784;SDS011;35233;55.686;37.848;2023-03-18T05:23:06;3.05;;;1.83;;
47784;SDS011;35233;55.686;37.848;2023-03-18T05:25:32;2.75;;;1.75;;
47784;SDS011;35233;55.686;37.848;2023-03-18T05:27:58;2.13;;;1.70;;
47784;SDS011;35233;55.686;37.848;2023-03-18T05:30:24;3.28;;;1.80;;
47784;SDS011;35233;55.686;37.848;2023-03-18T05:32:50;1.58;;;1.40;;
47784;SDS011;35233;55.686;37.848;2023-03-18T05:35:16;2.60;;;1.90;;
47784;SDS011;35233;55.686;37.848;2023-03-18T05:37:43;3.63;;;1.85;;
47784;SDS011;35233;55.686;37.848;2023-03-18T05:40:09;2.60;;;1.75;;
47784;SDS011;35233;55.686;37.848;2023-03-18T05:42:38;3.63;;;1.80;;
47784;SDS011;35233;55.686;37.848;2023-03-18T05:45:08;2.47;;;1.92;;
47784;SDS011;35233;55.686;37.848;2023-03-18T05:47:33;2.65;;;1.92;;
47784;SDS011;35233;55.686;37.848;2023-03-18T05:49:59;3.13;;;1.70;;
47784;SDS011;35233;55.686;37.848;2023-03-18T05:52:27;3.58;;;1.80;;
47784;SDS011;35233;55.686;37.848;2023-03-18T05:54:53;3.47;;;1.90;;
47784;SDS011;35233;55.686;37.848;2023-03-18T05:57:19;2.90;;;1.98;;
47784;SDS011;35233;55.686;37.848;2023-03-18T05:59:45;2.70;;;1.92;;
47784;SDS011;35233;55.686;37.848;2023-03-18T06:02:11;2.78;;;2.00;;
47784;SDS011;35233;55.686;37.848;2023-03-18T06:04:37;1.77;;;1.42;;
47784;SDS011;35233;55.686;37.848;2023-03-18T06:07:04;3.05;;;2.00;;
47784;SDS011;35233;55.686;37.848;2023-03-18T06:09:30;2.85;;;1.80;;
47784;SDS011;35233;55.686;37.848;2023-03-18T06:11:57;6.05;;;1.85;;
47784;SDS011;35233;55.686;37.848;2023-03-18T06:14:23;3.03;;;2.00;;
47784;SDS011;35233;55.686;37.848;2023-03-18T06:16:53;2.40;;;1.90;;
47784;SDS011;35233;55.686;37.848;2023-03-18T06:19:20;2.78;;;1.83;;
47784;SDS011;35233;55.686;37.848;2023-03-18T06:21:46;3.28;;;2.00;;
47784;SDS011;35233;55.686;37.848;2023-03-18T06:24:12;2.60;;;1.95;;
47784;SDS011;35233;55.686;37.848;2023-03-18T06:26:39;4.07;;;1.92;;
47784;SDS011;35233;55.686;37.848;2023-03-18T06:29:06;2.38;;;1.70;;
47784;SDS011;35233;55.686;37.848;2023-03-18T06:31:32;2.53;;;1.80;;
47784;SDS011;35233;55.686;37.848;2023-03-18T06:33:59;2.58;;;1.80;;
47784;SDS011;35233;55.686;37.848;2023-03-18T06:36:24;2.45;;;1.80;;
47784;SDS011;35233;55.686;37.848;2023-03-18T06:38:51;2.58;;;1.90;;
47784;SDS011;35233;55.686;37.848;2023-03-18T06:41:17;3.05;;;2.30;;
47784;SDS011;35233;55.686;37.848;2023-03-18T06:43:44;3.30;;;2.13;;
47784;SDS011;35233;55.686;37.848;2023-03-18T06:46:11;5.25;;;2.17;;
47784;SDS011;35233;55.686;37.848;2023-03-18T06:48:38;2.20;;;1.80;;
47784;SDS011;35233;55.686;37.848;2023-03-18T06:51:05;2.90;;;1.88;;
47784;SDS011;35233;55.686;37.848;2023-03-18T06:53:31;3.38;;;2.10;;
47784;SDS011;35233;55.686;37.848;2023-03-18T06:55:57;3.88;;;1.65;;
47784;SDS011;35233;55.686;37.848;2023-03-18T06:58:23;2.60;;;1.90;;
47784;SDS011;35233;55.686;37.848;2023-03-18T07:00:48;2.85;;;1.90;;
47784;SDS011;35233;55.686;37.848;2023-03-18T07:03:14;2.72;;;1.92;;
47784;SDS011;35233;55.686;37.848;2023-03-18T07:05:40;2.53;;;2.05;;
47784;SDS011;35233;55.686;37.848;2023-03-18T07:08:06;2.28;;;1.70;;
47784;SDS011;35233;55.686;37.848;2023-03-18T07:10:32;3.28;;;1.90;;
47784;SDS011;35233;55.686;37.848;2023-03-18T07:12:58;2.80;;;1.80;;
47784;SDS011;35233;55.686;37.848;2023-03-18T07:15:24;3.55;;;1.90;;
47784;SDS011;35233;55.686;37.848;2023-03-18T07:17:50;3.63;;;2.00;;
47784;SDS011;35233;55.686;37.848;2023-03-18T07:20:19;3.53;;;2.10;;
47784;SDS011;35233;55.686;37.848;2023-03-18T07:22:46;3.13;;;2.20;;
47784;SDS011;35233;55.686;37.848;2023-03-18T07:25:12;3.40;;;2.30;;
47784;SDS011;35233;55.686;37.848;2023-03-18T07:27:45;5.03;;;2.15;;
47784;SDS011;35233;55.686;37.848;2023-03-18T07:30:12;3.75;;;2.30;;
47784;SDS011;35233;55.686;37.848;2023-03-18T07:32:38;2.90;;;2.15;;
47784;SDS011;35233;55.686;37.848;2023-03-18T07:35:04;3.45;;;2.10;;
47784;SDS011;35233;55.686;37.848;2023-03-18T07:37:31;4.80;;;2.60;;
47784;SDS011;35233;55.686;37.848;2023-03-18T07:39:57;3.95;;;2.50;;
47784;SDS011;35233;55.686;37.848;2023-03-18T07:42:23;6.20;;;2.60;;
47784;SDS011;35233;55.686;37.848;2023-03-18T07:44:48;7.40;;;3.05;;
47784;SDS011;35233;55.686;37.848;2023-03-18T07:47:15;4.20;;;2.78;;
47784;SDS011;35233;55.686;37.848;2023-03-18T07:49:40;4.43;;;3.00;;
47784;SDS011;35233;55.686;37.848;2023-03-18T07:52:07;3.67;;;2.70;;
47784;SDS011;35233;55.686;37.848;2023-03-18T07:54:36;7.43;;;3.50;;
47784;SDS011;35233;55.686;37.848;2023-03-18T07:57:01;6.50;;;2.90;;
47784;SDS011;35233;55.686;37.848;2023-03-18T07:59:28;4.60;;;3.10;;
47784;SDS011;35233;55.686;37.848;2023-03-18T08:01:54;6.30;;;3.67;;
47784;SDS011;35233;55.686;37.848;2023-03-18T08:04:19;8.57;;;3.72;;
47784;SDS011;35233;55.686;37.848;2023-03-18T08:06:44;7.13;;;4.20;;
47784;SDS011;35233;55.686;37.848;2023-03-18T08:09:10;7.50;;;4.75;;
47784;SDS011;35233;55.686;37.848;2023-03-18T08:11:36;9.45;;;5.30;;
47784;SDS011;35233;55.686;37.848;2023-03-18T08:14:02;8.75;;;5.57;;
47784;SDS011;35233;55.686;37.848;2023-03-18T08:16:27;7.68;;;4.93;;
47784;SDS011;35233;55.686;37.848;2023-03-18T08:18:53;7.80;;;4.80;;
47784;SDS011;35233;55.686;37.848;2023-03-18T08:21:18;8.52;;;4.93;;
47784;SDS011;35233;55.686;37.848;2023-03-18T08:23:44;10.48;;;4.65;;
47784;SDS011;35233;55.686;37.848;2023-03-18T08:26:10;8.70;;;4.78;;
47784;SDS011;35233;55.686;37.848;2023-03-18T08:28:36;8.63;;;4.30;;
47784;SDS011;35233;55.686;37.848;2023-03-18T08:31:02;6.57;;;4.38;;
47784;SDS011;35233;55.686;37.848;2023-03-18T08:33:29;8.15;;;4.40;;
47784;SDS011;35233;55.686;37.848;2023-03-18T08:35:55;5.88;;;3.88;;
47784;SDS011;35233;55.686;37.848;2023-03-18T08:38:22;6.07;;;3.50;;
47784;SDS011;35233;55.686;37.848;2023-03-18T08:40:49;10.23;;;3.88;;
47784;SDS011;35233;55.686;37.848;2023-03-18T08:43:14;8.88;;;3.85;;
47784;SDS011;35233;55.686;37.848;2023-03-18T08:45:40;4.93;;;3.40;;
47784;SDS011;35233;55.686;37.848;2023-03-18T08:48:07;7.15;;;3.33;;
47784;SDS011;35233;55.686;37.848;2023-03-18T08:50:33;6.30;;;3.67;;
47784;SDS011;35233;55.686;37.848;2023-03-18T08:52:59;8.48;;;3.35;;
47784;SDS011;35233;55.686;37.848;2023-03-18T08:55:32;6.60;;;3.42;;
47784;SDS011;35233;55.686;37.848;2023-03-18T08:57:59;4.57;;;3.17;;
47784;SDS011;35233;55.686;37.848;2023-03-18T09:00:25;8.65;;;2.97;;
47784;SDS011;35233;55.686;37.848;2023-03-18T09:02:51;6.72;;;3.33;;
47784;SDS011;35233;55.686;37.848;2023-03-18T09:05:18;6.53;;;3.22;;
47784;SDS011;35233;55.686;37.848;2023-03-18T09:07:51;7.38;;;3.00;;
47784;SDS011;35233;55.686;37.848;2023-03-18T09:10:17;7.13;;;2.90;;
47784;SDS011;35233;55.686;37.848;2023-03-18T09:12:44;11.55;;;3.40;;
47784;SDS011;35233;55.686;37.848;2023-03-18T09:15:11;8.90;;;2.95;;
47784;SDS011;35233;55.686;37.848;2023-03-18T09:17:39;6.82;;;2.70;;
47784;SDS011;35233;55.686;37.848;2023-03-18T09:20:05;4.50;;;3.03;;
47784;SDS011;35233;55.686;37.848;2023-03-18T09:22:33;5.45;;;2.72;;
47784;SDS011;35233;55.686;37.848;2023-03-18T09:24:58;6.22;;;2.50;;
47784;SDS011;35233;55.686;37.848;2023-03-18T09:27:24;4.53;;;2.50;;
47784;SDS011;35233;55.686;37.848;2023-03-18T09:29:50;4.03;;;2.40;;
47784;SDS011;35233;55.686;37.848;2023-03-18T09:32:16;5.38;;;2.60;;
47784;SDS011;35233;55.686;37.848;2023-03-18T09:34:41;4.90;;;2.67;;
47784;SDS011;35233;55.686;37.848;2023-03-18T09:37:09;2.85;;;2.22;;
47784;SDS011;35233;55.686;37.848;2023-03-18T09:39:35;3.17;;;2.40;;
47784;SDS011;35233;55.686;37.848;2023-03-18T09:44:45;3.80;;;2.43;;
47784;SDS011;35233;55.686;37.848;2023-03-18T09:55:40;6.55;;;2.40;;
47784;SDS011;35233;55.686;37.848;2023-03-18T09:58:18;4.85;;;2.42;;
47784;SDS011;35233;55.686;37.848;2023-03-18T10:00:45;5.88;;;2.42;;
47784;SDS011;35233;55.686;37.848;2023-03-18T10:05:52;5.85;;;2.40;;
47784;SDS011;35233;55.686;37.848;2023-03-18T10:11:13;4.22;;;2.53;;
47784;SDS011;35233;55.686;37.848;2023-03-18T10:16:31;5.47;;;3.20;;
47784;SDS011;35233;55.686;37.848;2023-03-18T10:19:13;7.25;;;2.83;;
47784;SDS011;35233;55.686;37.848;2023-03-18T10:21:52;4.50;;;2.42;;
47784;SDS011;35233;55.686;37.848;2023-03-18T10:32:30;6.38;;;2.90;;
47784;SDS011;35233;55.686;37.848;2023-03-18T10:35:18;5.18;;;2.60;;
47784;SDS011;35233;55.686;37.848;2023-03-18T10:38:01;6.40;;;3.00;;
47784;SDS011;35233;55.686;37.848;2023-03-18T10:40:35;7.43;;;3.70;;
47784;SDS011;35233;55.686;37.848;2023-03-18T10:43:05;7.45;;;3.70;;
47784;SDS011;35233;55.686;37.848;2023-03-18T10:45:39;8.43;;;4.10;;
47784;SDS011;35233;55.686;37.848;2023-03-18T10:48:11;11.63;;;5.03;;
47784;SDS011;35233;55.686;37.848;2023-03-18T10:56:45;10.25;;;6.30;;
47784;SDS011;35233;55.686;37.848;2023-03-18T10:59:12;16.00;;;6.10;;
47784;SDS011;35233;55.686;37.848;2023-03-18T11:01:41;12.93;;;7.03;;
47784;SDS011;35233;55.686;37.848;2023-03-18T11:04:11;19.42;;;6.88;;
47784;SDS011;35233;55.686;37.848;2023-03-18T11:06:54;18.25;;;7.13;;
47784;SDS011;35233;55.686;37.848;2023-03-18T11:09:34;16.52;;;8.05;;
47784;SDS011;35233;55.686;37.848;2023-03-18T11:14:30;18.50;;;7.90;;
47784;SDS011;35233;55.686;37.848;2023-03-18T11:19:36;10.98;;;7.03;;
47784;SDS011;35233;55.686;37.848;2023-03-18T11:24:35;16.23;;;7.25;;
47784;SDS011;35233;55.686;37.848;2023-03-18T11:29:53;14.70;;;7.05;;
47784;SDS011;35233;55.686;37.848;2023-03-18T11:32:31;12.05;;;6.75;;
47784;SDS011;35233;55.686;37.848;2023-03-18T11:35:15;12.40;;;7.53;;
47784;SDS011;35233;55.686;37.848;2023-03-18T11:37:45;10.73;;;6.85;;
47784;SDS011;35233;55.686;37.848;2023-03-18T11:40:18;10.60;;;6.22;;
47784;SDS011;35233;55.686;37.848;2023-03-18T11:42:48;10.70;;;6.05;;
47784;SDS011;35233;55.686;37.848;2023-03-18T11:45:28;10.18;;;5.93;;
47784;SDS011;35233;55.686;37.848;2023-03-18T11:48:09;10.68;;;6.20;;
47784;SDS011;35233;55.686;37.848;2023-03-18T11:50:44;11.60;;;6.20;;
47784;SDS011;35233;55.686;37.848;2023-03-18T11:57:10;16.00;;;6.57;;
47784;SDS011;35233;55.686;37.848;2023-03-18T12:10:00;10.60;;;6.97;;
47784;SDS011;35233;55.686;37.848;2023-03-18T12:12:44;12.23;;;5.75;;
47784;SDS011;35233;55.686;37.848;2023-03-18T12:15:20;11.45;;;5.90;;
47784;SDS011;35233;55.686;37.848;2023-03-18T12:18:21;8.70;;;5.82;;
47784;SDS011;35233;55.686;37.848;2023-03-18T12:20:52;8.38;;;6.10;;
47784;SDS011;35233;55.686;37.848;2023-03-18T12:23:27;7.38;;;5.30;;
47784;SDS011;35233;55.686;37.848;2023-03-18T12:26:56;7.15;;;5.25;;
47784;SDS011;35233;55.686;37.848;2023-03-18T12:32:14;8.82;;;5.50;;
47784;SDS011;35233;55.686;37.848;2023-03-18T12:51:43;11.35;;;5.90;;
47784;SDS011;35233;55.686;37.848;2023-03-18T12:54:20;10.77;;;6.13;;
47784;SDS011;35233;55.686;37.848;2023-03-18T12:56:51;8.63;;;5.50;;
47784;SDS011;35233;55.686;37.848;2023-03-18T13:04:38;9.80;;;6.00;;
47784;SDS011;35233;55.686;37.848;2023-03-18T13:07:51;7.47;;;5.20;;
47784;SDS011;35233;55.686;37.848;2023-03-18T13:12:56;12.15;;;5.50;;
47784;SDS011;35233;55.686;37.848;2023-03-18T13:18:30;8.57;;;5.78;;
47784;SDS011;35233;55.686;37.848;2023-03-18T13:21:02;10.13;;;5.07;;
47784;SDS011;35233;55.686;37.848;2023-03-18T13:32:00;14.00;;;5.28;;
47784;SDS011;35233;55.686;37.848;2023-03-18T13:42:42;8.63;;;4.70;;
47784;SDS011;35233;55.686;37.848;2023-03-18T13:45:26;8.38;;;4.50;;
47784;SDS011;35233;55.686;37.848;2023-03-18T13:47:57;5.47;;;4.40;;
47784;SDS011;35233;55.686;37.848;2023-03-18T13:50:36;9.35;;;4.85;;
47784;SDS011;35233;55.686;37.848;2023-03-18T13:53:04;9.93;;;4.55;;
47784;SDS011;35233;55.686;37.848;2023-03-18T13:55:48;7.90;;;4.70;;
47784;SDS011;35233;55.686;37.848;2023-03-18T13:58:24;6.72;;;4.78;;
47784;SDS011;35233;55.686;37.848;2023-03-18T14:03:52;6.82;;;4.97;;
47784;SDS011;35233;55.686;37.848;2023-03-18T14:06:21;6.35;;;4.60;;
47784;SDS011;35233;55.686;37.848;2023-03-18T14:17:25;6.88;;;4.95;;
47784;SDS011;35233;55.686;37.848;2023-03-18T14:20:19;9.30;;;4.85;;
47784;SDS011;35233;55.686;37.848;2023-03-18T14:22:51;7.97;;;4.80;;
47784;SDS011;35233;55.686;37.848;2023-03-18T14:27:53;6.38;;;4.53;;
47784;SDS011;35233;55.686;37.848;2023-03-18T14:35:46;6.50;;;4.13;;
47784;SDS011;35233;55.686;37.848;2023-03-18T14:38:31;7.28;;;4.70;;
47784;SDS011;35233;55.686;37.848;2023-03-18T14:41:03;6.00;;;4.32;;
47784;SDS011;35233;55.686;37.848;2023-03-18T14:43:46;7.05;;;4.82;;
47784;SDS011;35233;55.686;37.848;2023-03-18T14:46:26;7.65;;;4.45;;
47784;SDS011;35233;55.686;37.848;2023-03-18T14:48:57;5.82;;;4.40;;
47784;SDS011;35233;55.686;37.848;2023-03-18T14:51:24;7.47;;;4.40;;
47784;SDS011;35233;55.686;37.848;2023-03-18T14:54:05;8.05;;;3.90;;
47784;SDS011;35233;55.686;37.848;2023-03-18T14:56:41;7.97;;;3.78;;
47784;SDS011;35233;55.686;37.848;2023-03-18T14:59:15;6.28;;;4.50;;
47784;SDS011;35233;55.686;37.848;2023-03-18T15:01:45;6.78;;;4.57;;
47784;SDS011;35233;55.686;37.848;2023-03-18T15:04:16;6.40;;;4.63;;
47784;SDS011;35233;55.686;37.848;2023-03-18T15:06:46;5.95;;;4.80;;
47784;SDS011;35233;55.686;37.848;2023-03-18T15:09:15;5.68;;;4.60;;
47784;SDS011;35233;55.686;37.848;2023-03-18T15:11:44;7.13;;;4.85;;
47784;SDS011;35233;55.686;37.848;2023-03-18T15:14:28;6.07;;;4.38;;
47784;SDS011;35233;55.686;37.848;2023-03-18T15:17:09;6.93;;;4.55;;
47784;SDS011;35233;55.686;37.848;2023-03-18T15:19:40;5.70;;;4.22;;
47784;SDS011;35233;55.686;37.848;2023-03-18T15:22:05;6.40;;;4.45;;
47784;SDS011;35233;55.686;37.848;2023-03-18T15:24:33;6.82;;;5.05;;
47784;SDS011;35233;55.686;37.848;2023-03-18T15:29:54;10.13;;;4.30;;
47784;SDS011;35233;55.686;37.848;2023-03-18T15:32:31;5.68;;;4.13;;
47784;SDS011;35233;55.686;37.848;2023-03-18T15:42:57;8.15;;;5.93;;
47784;SDS011;35233;55.686;37.848;2023-03-18T15:46:18;8.32;;;5.60;;
47784;SDS011;35233;55.686;37.848;2023-03-18T15:48:31;7.53;;;5.70;;
47784;SDS011;35233;55.686;37.848;2023-03-18T15:50:58;6.80;;;5.25;;
47784;SDS011;35233;55.686;37.848;2023-03-18T15:53:26;7.40;;;5.20;;
47784;SDS011;35233;55.686;37.848;2023-03-18T15:56:06;9.65;;;5.07;;
47784;SDS011;35233;55.686;37.848;2023-03-18T15:58:38;5.75;;;4.65;;
47784;SDS011;35233;55.686;37.848;2023-03-18T16:01:04;6.65;;;4.70;;
47784;SDS011;35233;55.686;37.848;2023-03-18T16:03:32;6.72;;;4.45;;
47784;SDS011;35233;55.686;37.848;2023-03-18T16:05:59;6.55;;;4.20;;
47784;SDS011;35233;55.686;37.848;2023-03-18T16:08:26;6.05;;;4.43;;
47784;SDS011;35233;55.686;37.848;2023-03-18T16:10:52;6.55;;;4.28;;
47784;SDS011;35233;55.686;37.848;2023-03-18T16:13:23;6.53;;;4.38;;
47784;SDS011;35233;55.686;37.848;2023-03-18T16:15:52;5.93;;;4.05;;
47784;SDS011;35233;55.686;37.848;2023-03-18T16:18:18;6.18;;;4.35;;
47784;SDS011;35233;55.686;37.848;2023-03-18T16:20:45;5.97;;;4.10;;
47784;SDS011;35233;55.686;37.848;2023-03-18T16:23:12;6.13;;;4.18;;
47784;SDS011;35233;55.686;37.848;2023-03-18T16:25:41;5.85;;;4.20;;
47784;SDS011;35233;55.686;37.848;2023-03-18T16:28:09;5.60;;;4.03;;
47784;SDS011;35233;55.686;37.848;2023-03-18T16:30:41;5.57;;;4.03;;
47784;SDS011;35233;55.686;37.848;2023-03-18T16:33:11;5.85;;;4.43;;
47784;SDS011;35233;55.686;37.848;2023-03-18T16:35:38;6.75;;;4.10;;
47784;SDS011;35233;55.686;37.848;2023-03-18T16:38:04;6.90;;;4.28;;
47784;SDS011;35233;55.686;37.848;2023-03-18T16:40:35;8.88;;;4.28;;
47784;SDS011;35233;55.686;37.848;2023-03-18T16:43:01;6.20;;;4.22;;
47784;SDS011;35233;55.686;37.848;2023-03-18T16:45:27;6.50;;;4.38;;
47784;SDS011;35233;55.686;37.848;2023-03-18T16:48:01;6.50;;;4.15;;
47784;SDS011;35233;55.686;37.848;2023-03-18T16:50:32;7.95;;;5.15;;
47784;SDS011;35233;55.686;37.848;2023-03-18T16:53:00;8.32;;;4.63;;
47784;SDS011;35233;55.686;37.848;2023-03-18T16:55:27;6.65;;;4.53;;
47784;SDS011;35233;55.686;37.848;2023-03-18T16:57:53;6.78;;;4.70;;
47784;SDS011;35233;55.686;37.848;2023-03-18T17:00:26;7.72;;;4.93;;
47784;SDS011;35233;55.686;37.848;2023-03-18T17:02:56;6.10;;;4.37;;
47784;SDS011;35233;55.686;37.848;2023-03-18T17:05:22;7.90;;;4.57;;